Ahoskie, NC (27910)

7:41 PM EST on February 10, 2016 (GMT -0500)
Vaughantown | | Change Station
CLOSE
Current Station
Personal Weather Station
Location: Murfreesboro, NC
Elevation: 89 ft
Nearby Weather Stations

Elev 89 ft 36.39 °N, 77.08 °W | Updated 24 seconds ago

Overcast
Overcast
34.9 °F
Feels Like 31 °F
N
4.7
Wind Variable Wind from West

Today
High -- | Low -- °F
--% Chance of Precip.
Yesterday
High -- | Low -- °F
Precip. -- in
Pressure 29.93 in
Visibility 10.0 miles
Clouds Overcast 6500 ft
Windchill 31 °F
Dew Point 15 °F
Humidity 43%
Rainfall 0.00 in
Snow Depth Not available.
7:01 AM 5:43 PM
Waxing Crescent, 8% visible
METAR KASJ 110035Z AUTO 00000KT 10SM OVC065 02/M10 A2993 RMK AO2 T00171096
Pressure 29.93 in
Visibility 10.0 miles
Clouds Overcast 6500 ft
Windchill 31 °F
Dew Point 15 °F
Humidity 43%
Rainfall 0.00 in
Snow Depth Not available.
7:01 AM 5:43 PM
Waxing Crescent, 8% visible
METAR KASJ 110035Z AUTO 00000KT 10SM OVC065 02/M10 A2993 RMK AO2 T00171096

10-Day Weather Forecast

Almanac

Astronomy

Feb. 10, 2016 Rise Set
Actual Time
Civil Twilight
Nautical Twilight
Astronomical Twilight
Moon
Length of Visible Light
Length of Day
Tomorrow will be .
, % of the Moon is Illuminated

Today's Extremes

State Highs State Lows

Community

WunderPhotos

Upload Photos

1,891,948 photos uploaded!

WunderBlog® & News

Nearby

Air Quality

  Air Quality AQ Index Pollutant
Not available.

Snow Depth

Station Depth Elevation

Earthquake Activity

City Distance Mag. Time & Date
Minimum magnitude displayed is 2.5.

Coastal Water Temperatures

Place Temperature

Stations

Nearby Weather Stations

Station Location Temp. Windchill Dew Point Humidity Wind Precip. Elev Updated Type
                   

Watches & Warnings

There are currently no watches in effect.